sensor_id;sensor_type;location;lat;lon;timestamp;P1;durP1;ratioP1;P2;durP2;ratioP2
11054;SDS011;5580;50.106;8.702;2022-07-29T00:01:06;7.10;;;3.77;;
11054;SDS011;5580;50.106;8.702;2022-07-29T00:03:31;12.43;;;4.00;;
11054;SDS011;5580;50.106;8.702;2022-07-29T00:05:57;5.83;;;3.67;;
11054;SDS011;5580;50.106;8.702;2022-07-29T00:08:23;10.40;;;4.17;;
11054;SDS011;5580;50.106;8.702;2022-07-29T00:10:49;9.43;;;3.73;;
11054;SDS011;5580;50.106;8.702;2022-07-29T00:13:14;5.70;;;3.40;;
11054;SDS011;5580;50.106;8.702;2022-07-29T00:15:40;6.00;;;3.70;;
11054;SDS011;5580;50.106;8.702;2022-07-29T00:18:06;7.63;;;3.30;;
11054;SDS011;5580;50.106;8.702;2022-07-29T00:20:31;10.00;;;3.90;;
11054;SDS011;5580;50.106;8.702;2022-07-29T00:22:57;11.90;;;3.93;;
11054;SDS011;5580;50.106;8.702;2022-07-29T00:25:23;7.80;;;3.37;;
11054;SDS011;5580;50.106;8.702;2022-07-29T00:27:48;7.20;;;3.73;;
11054;SDS011;5580;50.106;8.702;2022-07-29T00:30:14;9.03;;;3.73;;
11054;SDS011;5580;50.106;8.702;2022-07-29T00:32:40;7.23;;;3.73;;
11054;SDS011;5580;50.106;8.702;2022-07-29T00:35:06;7.07;;;3.43;;
11054;SDS011;5580;50.106;8.702;2022-07-29T00:37:50;8.20;;;3.70;;
11054;SDS011;5580;50.106;8.702;2022-07-29T00:40:16;9.00;;;3.70;;
11054;SDS011;5580;50.106;8.702;2022-07-29T00:42:42;5.87;;;3.60;;
11054;SDS011;5580;50.106;8.702;2022-07-29T00:45:09;7.70;;;3.80;;
11054;SDS011;5580;50.106;8.702;2022-07-29T00:47:35;7.57;;;3.67;;
11054;SDS011;5580;50.106;8.702;2022-07-29T00:50:00;7.10;;;3.60;;
11054;SDS011;5580;50.106;8.702;2022-07-29T00:52:26;6.73;;;3.83;;
11054;SDS011;5580;50.106;8.702;2022-07-29T00:54:52;5.53;;;3.60;;
11054;SDS011;5580;50.106;8.702;2022-07-29T00:57:17;7.90;;;3.83;;
11054;SDS011;5580;50.106;8.702;2022-07-29T00:59:43;7.53;;;3.90;;
11054;SDS011;5580;50.106;8.702;2022-07-29T01:02:08;9.57;;;3.70;;
11054;SDS011;5580;50.106;8.702;2022-07-29T01:04:34;10.33;;;3.67;;
11054;SDS011;5580;50.106;8.702;2022-07-29T01:07:00;8.30;;;3.80;;
11054;SDS011;5580;50.106;8.702;2022-07-29T01:09:27;7.47;;;3.87;;
11054;SDS011;5580;50.106;8.702;2022-07-29T01:11:53;7.10;;;3.80;;
11054;SDS011;5580;50.106;8.702;2022-07-29T01:14:19;6.17;;;3.70;;
11054;SDS011;5580;50.106;8.702;2022-07-29T01:16:51;6.70;;;4.23;;
11054;SDS011;5580;50.106;8.702;2022-07-29T01:22:27;9.37;;;3.90;;
11054;SDS011;5580;50.106;8.702;2022-07-29T01:30:13;8.10;;;3.90;;
11054;SDS011;5580;50.106;8.702;2022-07-29T01:32:39;9.43;;;4.40;;
11054;SDS011;5580;50.106;8.702;2022-07-29T01:35:10;6.37;;;4.10;;
11054;SDS011;5580;50.106;8.702;2022-07-29T01:37:46;6.77;;;3.90;;
11054;SDS011;5580;50.106;8.702;2022-07-29T01:40:21;7.67;;;3.93;;
11054;SDS011;5580;50.106;8.702;2022-07-29T01:42:52;6.90;;;4.00;;
11054;SDS011;5580;50.106;8.702;2022-07-29T01:48:13;7.23;;;3.70;;
11054;SDS011;5580;50.106;8.702;2022-07-29T01:50:53;7.30;;;4.10;;
11054;SDS011;5580;50.106;8.702;2022-07-29T01:53:54;10.10;;;4.30;;
11054;SDS011;5580;50.106;8.702;2022-07-29T01:56:31;8.80;;;4.17;;
11054;SDS011;5580;50.106;8.702;2022-07-29T01:58:59;11.67;;;3.97;;
11054;SDS011;5580;50.106;8.702;2022-07-29T02:01:27;9.63;;;3.97;;
11054;SDS011;5580;50.106;8.702;2022-07-29T02:03:56;8.83;;;3.90;;
11054;SDS011;5580;50.106;8.702;2022-07-29T02:06:23;9.20;;;4.20;;
11054;SDS011;5580;50.106;8.702;2022-07-29T02:08:50;8.03;;;4.07;;
11054;SDS011;5580;50.106;8.702;2022-07-29T02:11:17;7.53;;;4.40;;
11054;SDS011;5580;50.106;8.702;2022-07-29T02:13:43;8.17;;;4.23;;
11054;SDS011;5580;50.106;8.702;2022-07-29T02:16:10;9.77;;;4.37;;
11054;SDS011;5580;50.106;8.702;2022-07-29T02:18:39;8.07;;;3.83;;
11054;SDS011;5580;50.106;8.702;2022-07-29T02:21:08;8.37;;;4.27;;
11054;SDS011;5580;50.106;8.702;2022-07-29T02:23:34;8.83;;;4.37;;
11054;SDS011;5580;50.106;8.702;2022-07-29T02:26:02;7.10;;;4.03;;
11054;SDS011;5580;50.106;8.702;2022-07-29T02:28:29;7.60;;;4.40;;
11054;SDS011;5580;50.106;8.702;2022-07-29T02:30:57;11.43;;;4.47;;
11054;SDS011;5580;50.106;8.702;2022-07-29T02:33:24;7.37;;;4.13;;
11054;SDS011;5580;50.106;8.702;2022-07-29T02:35:51;9.60;;;4.17;;
11054;SDS011;5580;50.106;8.702;2022-07-29T02:38:17;8.93;;;4.40;;
11054;SDS011;5580;50.106;8.702;2022-07-29T02:41:05;8.10;;;4.30;;
11054;SDS011;5580;50.106;8.702;2022-07-29T02:43:36;10.60;;;4.50;;
11054;SDS011;5580;50.106;8.702;2022-07-29T02:46:04;8.07;;;4.50;;
11054;SDS011;5580;50.106;8.702;2022-07-29T02:48:37;7.90;;;4.40;;
11054;SDS011;5580;50.106;8.702;2022-07-29T02:51:08;11.07;;;4.80;;
11054;SDS011;5580;50.106;8.702;2022-07-29T02:53:42;13.27;;;4.77;;
11054;SDS011;5580;50.106;8.702;2022-07-29T02:56:13;7.30;;;4.40;;
11054;SDS011;5580;50.106;8.702;2022-07-29T02:58:42;10.07;;;4.80;;
11054;SDS011;5580;50.106;8.702;2022-07-29T03:01:20;9.37;;;4.60;;
11054;SDS011;5580;50.106;8.702;2022-07-29T03:03:48;9.43;;;4.80;;
11054;SDS011;5580;50.106;8.702;2022-07-29T03:06:16;9.70;;;4.60;;
11054;SDS011;5580;50.106;8.702;2022-07-29T03:08:44;9.37;;;4.43;;
11054;SDS011;5580;50.106;8.702;2022-07-29T03:11:10;12.10;;;4.80;;
11054;SDS011;5580;50.106;8.702;2022-07-29T03:13:37;9.07;;;4.97;;
11054;SDS011;5580;50.106;8.702;2022-07-29T03:16:04;11.07;;;4.80;;
11054;SDS011;5580;50.106;8.702;2022-07-29T03:18:30;7.70;;;4.53;;
11054;SDS011;5580;50.106;8.702;2022-07-29T03:20:57;14.17;;;4.87;;
11054;SDS011;5580;50.106;8.702;2022-07-29T03:23:23;13.50;;;4.90;;
11054;SDS011;5580;50.106;8.702;2022-07-29T03:25:50;14.13;;;5.07;;
11054;SDS011;5580;50.106;8.702;2022-07-29T03:28:16;9.37;;;4.83;;
11054;SDS011;5580;50.106;8.702;2022-07-29T03:30:42;10.30;;;4.90;;
11054;SDS011;5580;50.106;8.702;2022-07-29T03:33:08;14.00;;;5.00;;
11054;SDS011;5580;50.106;8.702;2022-07-29T03:35:33;13.60;;;5.03;;
11054;SDS011;5580;50.106;8.702;2022-07-29T03:37:59;12.33;;;5.13;;
11054;SDS011;5580;50.106;8.702;2022-07-29T03:40:31;8.93;;;4.60;;
11054;SDS011;5580;50.106;8.702;2022-07-29T03:43:03;9.30;;;5.00;;
11054;SDS011;5580;50.106;8.702;2022-07-29T03:45:31;11.83;;;4.80;;
11054;SDS011;5580;50.106;8.702;2022-07-29T03:48:00;8.50;;;4.57;;
11054;SDS011;5580;50.106;8.702;2022-07-29T03:50:30;9.40;;;4.77;;
11054;SDS011;5580;50.106;8.702;2022-07-29T03:52:56;9.30;;;4.70;;
11054;SDS011;5580;50.106;8.702;2022-07-29T03:55:22;8.37;;;4.73;;
11054;SDS011;5580;50.106;8.702;2022-07-29T03:57:49;9.00;;;4.73;;
11054;SDS011;5580;50.106;8.702;2022-07-29T04:00:15;8.03;;;4.63;;
11054;SDS011;5580;50.106;8.702;2022-07-29T04:02:42;8.57;;;4.40;;
11054;SDS011;5580;50.106;8.702;2022-07-29T04:05:13;10.30;;;4.83;;
11054;SDS011;5580;50.106;8.702;2022-07-29T04:07:48;9.33;;;5.00;;
11054;SDS011;5580;50.106;8.702;2022-07-29T04:10:14;11.47;;;4.53;;
11054;SDS011;5580;50.106;8.702;2022-07-29T04:12:41;14.33;;;4.97;;
11054;SDS011;5580;50.106;8.702;2022-07-29T04:15:08;12.57;;;5.20;;
11054;SDS011;5580;50.106;8.702;2022-07-29T04:17:33;9.83;;;5.00;;
11054;SDS011;5580;50.106;8.702;2022-07-29T04:19:59;9.93;;;5.07;;
11054;SDS011;5580;50.106;8.702;2022-07-29T04:22:25;10.53;;;5.10;;
11054;SDS011;5580;50.106;8.702;2022-07-29T04:24:50;10.93;;;4.83;;
11054;SDS011;5580;50.106;8.702;2022-07-29T04:27:16;10.27;;;5.07;;
11054;SDS011;5580;50.106;8.702;2022-07-29T04:29:41;9.43;;;4.60;;
11054;SDS011;5580;50.106;8.702;2022-07-29T04:32:07;10.33;;;4.20;;
11054;SDS011;5580;50.106;8.702;2022-07-29T04:34:33;9.57;;;4.30;;
11054;SDS011;5580;50.106;8.702;2022-07-29T04:36:58;10.57;;;4.37;;
11054;SDS011;5580;50.106;8.702;2022-07-29T04:39:24;10.60;;;4.40;;
11054;SDS011;5580;50.106;8.702;2022-07-29T04:41:50;7.90;;;4.40;;
11054;SDS011;5580;50.106;8.702;2022-07-29T04:44:16;12.10;;;4.47;;
11054;SDS011;5580;50.106;8.702;2022-07-29T04:46:42;11.93;;;4.50;;
11054;SDS011;5580;50.106;8.702;2022-07-29T04:49:08;8.80;;;4.30;;
11054;SDS011;5580;50.106;8.702;2022-07-29T04:51:34;12.70;;;4.73;;
11054;SDS011;5580;50.106;8.702;2022-07-29T04:53:59;11.57;;;4.70;;
11054;SDS011;5580;50.106;8.702;2022-07-29T04:56:25;12.93;;;5.00;;
11054;SDS011;5580;50.106;8.702;2022-07-29T04:58:51;10.37;;;4.70;;
11054;SDS011;5580;50.106;8.702;2022-07-29T05:01:16;7.03;;;4.47;;
11054;SDS011;5580;50.106;8.702;2022-07-29T05:03:42;9.73;;;4.70;;
11054;SDS011;5580;50.106;8.702;2022-07-29T05:06:08;11.00;;;4.67;;
11054;SDS011;5580;50.106;8.702;2022-07-29T05:08:33;8.63;;;4.23;;
11054;SDS011;5580;50.106;8.702;2022-07-29T05:10:59;9.17;;;4.70;;
11054;SDS011;5580;50.106;8.702;2022-07-29T05:13:24;8.33;;;4.30;;
11054;SDS011;5580;50.106;8.702;2022-07-29T05:15:50;10.37;;;4.37;;
11054;SDS011;5580;50.106;8.702;2022-07-29T05:18:15;8.57;;;4.23;;
11054;SDS011;5580;50.106;8.702;2022-07-29T05:20:41;9.47;;;4.40;;
11054;SDS011;5580;50.106;8.702;2022-07-29T05:23:07;11.83;;;4.57;;
11054;SDS011;5580;50.106;8.702;2022-07-29T05:25:32;12.03;;;4.90;;
11054;SDS011;5580;50.106;8.702;2022-07-29T05:27:58;6.60;;;4.20;;
11054;SDS011;5580;50.106;8.702;2022-07-29T05:30:24;8.97;;;4.43;;
11054;SDS011;5580;50.106;8.702;2022-07-29T05:32:50;7.13;;;4.30;;
11054;SDS011;5580;50.106;8.702;2022-07-29T05:35:15;9.87;;;4.50;;
11054;SDS011;5580;50.106;8.702;2022-07-29T05:37:41;9.43;;;4.47;;
11054;SDS011;5580;50.106;8.702;2022-07-29T05:40:07;8.93;;;4.40;;
11054;SDS011;5580;50.106;8.702;2022-07-29T05:42:33;9.37;;;4.43;;
11054;SDS011;5580;50.106;8.702;2022-07-29T05:45:00;8.80;;;4.40;;
11054;SDS011;5580;50.106;8.702;2022-07-29T05:47:26;9.73;;;4.40;;
11054;SDS011;5580;50.106;8.702;2022-07-29T05:49:52;11.90;;;4.67;;
11054;SDS011;5580;50.106;8.702;2022-07-29T05:52:18;10.17;;;4.30;;
11054;SDS011;5580;50.106;8.702;2022-07-29T05:54:43;9.13;;;4.50;;
11054;SDS011;5580;50.106;8.702;2022-07-29T05:57:18;8.50;;;4.10;;
11054;SDS011;5580;50.106;8.702;2022-07-29T05:59:48;9.10;;;4.23;;
11054;SDS011;5580;50.106;8.702;2022-07-29T06:02:14;12.07;;;4.60;;
11054;SDS011;5580;50.106;8.702;2022-07-29T06:04:41;8.80;;;4.50;;
11054;SDS011;5580;50.106;8.702;2022-07-29T06:07:07;8.83;;;4.10;;
11054;SDS011;5580;50.106;8.702;2022-07-29T06:09:33;14.17;;;4.70;;
11054;SDS011;5580;50.106;8.702;2022-07-29T06:11:59;8.10;;;4.13;;
11054;SDS011;5580;50.106;8.702;2022-07-29T06:14:25;10.80;;;4.50;;
11054;SDS011;5580;50.106;8.702;2022-07-29T06:16:54;13.43;;;4.70;;
11054;SDS011;5580;50.106;8.702;2022-07-29T06:19:20;10.53;;;4.50;;
11054;SDS011;5580;50.106;8.702;2022-07-29T06:21:46;8.10;;;4.50;;
11054;SDS011;5580;50.106;8.702;2022-07-29T06:24:13;12.87;;;4.30;;
11054;SDS011;5580;50.106;8.702;2022-07-29T06:26:40;11.83;;;4.50;;
11054;SDS011;5580;50.106;8.702;2022-07-29T06:29:07;10.73;;;4.50;;
11054;SDS011;5580;50.106;8.702;2022-07-29T06:31:34;6.37;;;4.20;;
11054;SDS011;5580;50.106;8.702;2022-07-29T06:33:59;9.47;;;4.40;;
11054;SDS011;5580;50.106;8.702;2022-07-29T06:36:25;9.60;;;4.57;;
11054;SDS011;5580;50.106;8.702;2022-07-29T06:38:50;9.20;;;4.47;;
11054;SDS011;5580;50.106;8.702;2022-07-29T06:41:16;12.83;;;4.37;;
11054;SDS011;5580;50.106;8.702;2022-07-29T06:43:42;13.03;;;4.50;;
11054;SDS011;5580;50.106;8.702;2022-07-29T06:46:10;8.97;;;4.40;;
11054;SDS011;5580;50.106;8.702;2022-07-29T06:48:39;10.20;;;4.47;;
11054;SDS011;5580;50.106;8.702;2022-07-29T06:51:07;14.17;;;4.80;;
11054;SDS011;5580;50.106;8.702;2022-07-29T06:53:34;10.23;;;4.50;;
11054;SDS011;5580;50.106;8.702;2022-07-29T06:56:00;11.83;;;4.27;;
11054;SDS011;5580;50.106;8.702;2022-07-29T06:58:28;9.67;;;4.40;;
11054;SDS011;5580;50.106;8.702;2022-07-29T07:00:54;11.77;;;4.40;;
11054;SDS011;5580;50.106;8.702;2022-07-29T07:03:20;6.70;;;4.20;;
11054;SDS011;5580;50.106;8.702;2022-07-29T07:05:47;8.53;;;4.20;;
11054;SDS011;5580;50.106;8.702;2022-07-29T07:08:13;7.83;;;4.50;;
11054;SDS011;5580;50.106;8.702;2022-07-29T07:10:40;11.17;;;4.10;;
11054;SDS011;5580;50.106;8.702;2022-07-29T07:13:07;10.17;;;4.73;;
11054;SDS011;5580;50.106;8.702;2022-07-29T07:15:32;10.83;;;4.30;;
11054;SDS011;5580;50.106;8.702;2022-07-29T07:17:58;8.87;;;4.20;;
11054;SDS011;5580;50.106;8.702;2022-07-29T07:20:24;10.03;;;4.33;;
11054;SDS011;5580;50.106;8.702;2022-07-29T07:22:50;10.07;;;4.47;;
11054;SDS011;5580;50.106;8.702;2022-07-29T07:25:15;11.57;;;4.30;;
11054;SDS011;5580;50.106;8.702;2022-07-29T07:27:42;7.13;;;4.40;;
11054;SDS011;5580;50.106;8.702;2022-07-29T07:30:09;8.03;;;4.20;;
11054;SDS011;5580;50.106;8.702;2022-07-29T07:32:35;10.97;;;4.00;;
11054;SDS011;5580;50.106;8.702;2022-07-29T07:35:02;10.83;;;4.40;;
11054;SDS011;5580;50.106;8.702;2022-07-29T07:37:29;10.43;;;4.70;;
11054;SDS011;5580;50.106;8.702;2022-07-29T07:39:54;14.37;;;4.70;;
11054;SDS011;5580;50.106;8.702;2022-07-29T07:42:20;16.73;;;4.80;;
11054;SDS011;5580;50.106;8.702;2022-07-29T07:44:46;13.47;;;4.37;;
11054;SDS011;5580;50.106;8.702;2022-07-29T07:47:13;12.23;;;4.50;;
11054;SDS011;5580;50.106;8.702;2022-07-29T07:49:39;10.77;;;4.90;;
11054;SDS011;5580;50.106;8.702;2022-07-29T07:52:05;10.13;;;4.67;;
11054;SDS011;5580;50.106;8.702;2022-07-29T07:54:31;10.27;;;5.10;;
11054;SDS011;5580;50.106;8.702;2022-07-29T07:56:56;15.17;;;5.17;;
11054;SDS011;5580;50.106;8.702;2022-07-29T07:59:22;10.83;;;4.47;;
11054;SDS011;5580;50.106;8.702;2022-07-29T08:01:48;12.50;;;5.07;;
11054;SDS011;5580;50.106;8.702;2022-07-29T08:04:14;10.47;;;4.87;;
11054;SDS011;5580;50.106;8.702;2022-07-29T08:06:40;13.90;;;5.07;;
11054;SDS011;5580;50.106;8.702;2022-07-29T08:09:06;11.17;;;4.70;;
11054;SDS011;5580;50.106;8.702;2022-07-29T08:11:31;15.57;;;4.70;;
11054;SDS011;5580;50.106;8.702;2022-07-29T08:13:57;11.57;;;5.57;;
11054;SDS011;5580;50.106;8.702;2022-07-29T08:16:23;11.17;;;4.63;;
11054;SDS011;5580;50.106;8.702;2022-07-29T08:18:50;10.43;;;4.60;;
11054;SDS011;5580;50.106;8.702;2022-07-29T08:21:16;10.30;;;4.50;;
11054;SDS011;5580;50.106;8.702;2022-07-29T08:23:45;14.30;;;4.90;;
11054;SDS011;5580;50.106;8.702;2022-07-29T08:26:13;11.67;;;4.80;;
11054;SDS011;5580;50.106;8.702;2022-07-29T08:28:40;10.77;;;4.80;;
11054;SDS011;5580;50.106;8.702;2022-07-29T08:31:11;12.40;;;5.03;;
11054;SDS011;5580;50.106;8.702;2022-07-29T08:33:37;11.73;;;5.03;;
11054;SDS011;5580;50.106;8.702;2022-07-29T08:36:04;13.03;;;5.20;;
11054;SDS011;5580;50.106;8.702;2022-07-29T08:38:31;14.93;;;5.10;;
11054;SDS011;5580;50.106;8.702;2022-07-29T08:40:57;11.03;;;4.90;;
11054;SDS011;5580;50.106;8.702;2022-07-29T08:43:25;11.30;;;4.97;;
11054;SDS011;5580;50.106;8.702;2022-07-29T08:45:50;12.47;;;4.70;;
11054;SDS011;5580;50.106;8.702;2022-07-29T08:48:18;9.50;;;4.70;;
11054;SDS011;5580;50.106;8.702;2022-07-29T08:50:47;10.33;;;4.87;;
11054;SDS011;5580;50.106;8.702;2022-07-29T08:53:15;11.03;;;5.03;;
11054;SDS011;5580;50.106;8.702;2022-07-29T08:55:42;11.63;;;5.30;;
11054;SDS011;5580;50.106;8.702;2022-07-29T08:58:09;8.73;;;4.70;;
11054;SDS011;5580;50.106;8.702;2022-07-29T09:00:41;10.23;;;4.83;;
11054;SDS011;5580;50.106;8.702;2022-07-29T09:03:09;12.17;;;5.10;;
11054;SDS011;5580;50.106;8.702;2022-07-29T09:05:41;12.57;;;5.47;;
11054;SDS011;5580;50.106;8.702;2022-07-29T09:08:07;8.97;;;4.60;;
11054;SDS011;5580;50.106;8.702;2022-07-29T09:10:37;10.83;;;5.40;;
11054;SDS011;5580;50.106;8.702;2022-07-29T09:13:03;12.63;;;5.10;;
11054;SDS011;5580;50.106;8.702;2022-07-29T09:15:28;11.80;;;4.90;;
11054;SDS011;5580;50.106;8.702;2022-07-29T09:17:54;10.50;;;4.97;;
11054;SDS011;5580;50.106;8.702;2022-07-29T09:20:22;14.33;;;5.07;;
11054;SDS011;5580;50.106;8.702;2022-07-29T09:22:48;13.87;;;5.17;;
11054;SDS011;5580;50.106;8.702;2022-07-29T09:25:33;14.80;;;5.10;;
11054;SDS011;5580;50.106;8.702;2022-07-29T09:28:09;12.17;;;5.47;;
11054;SDS011;5580;50.106;8.702;2022-07-29T09:30:55;13.83;;;4.80;;
11054;SDS011;5580;50.106;8.702;2022-07-29T09:33:23;8.13;;;4.80;;
11054;SDS011;5580;50.106;8.702;2022-07-29T09:36:03;8.50;;;4.90;;
11054;SDS011;5580;50.106;8.702;2022-07-29T09:38:30;9.00;;;4.90;;
11054;SDS011;5580;50.106;8.702;2022-07-29T09:40:57;10.87;;;5.00;;
11054;SDS011;5580;50.106;8.702;2022-07-29T09:43:24;11.20;;;5.27;;
11054;SDS011;5580;50.106;8.702;2022-07-29T09:45:50;11.97;;;5.13;;
11054;SDS011;5580;50.106;8.702;2022-07-29T09:48:17;8.97;;;5.00;;
11054;SDS011;5580;50.106;8.702;2022-07-29T09:50:45;9.23;;;5.00;;
11054;SDS011;5580;50.106;8.702;2022-07-29T09:56:03;15.93;;;5.20;;
11054;SDS011;5580;50.106;8.702;2022-07-29T09:58:29;11.77;;;5.60;;
11054;SDS011;5580;50.106;8.702;2022-07-29T10:00:58;9.40;;;5.10;;
11054;SDS011;5580;50.106;8.702;2022-07-29T10:03:24;8.77;;;5.00;;
11054;SDS011;5580;50.106;8.702;2022-07-29T10:06:09;12.67;;;4.97;;
11054;SDS011;5580;50.106;8.702;2022-07-29T10:08:36;13.03;;;5.43;;
11054;SDS011;5580;50.106;8.702;2022-07-29T10:11:12;7.93;;;4.90;;
11054;SDS011;5580;50.106;8.702;2022-07-29T10:13:40;9.03;;;4.83;;
11054;SDS011;5580;50.106;8.702;2022-07-29T10:16:06;9.57;;;5.10;;
11054;SDS011;5580;50.106;8.702;2022-07-29T10:18:33;9.77;;;5.33;;
11054;SDS011;5580;50.106;8.702;2022-07-29T10:20:59;9.63;;;5.30;;
11054;SDS011;5580;50.106;8.702;2022-07-29T10:23:29;7.93;;;5.17;;
11054;SDS011;5580;50.106;8.702;2022-07-29T10:25:55;8.70;;;5.10;;
11054;SDS011;5580;50.106;8.702;2022-07-29T10:28:21;9.20;;;5.00;;
11054;SDS011;5580;50.106;8.702;2022-07-29T10:30:48;10.40;;;5.07;;
11054;SDS011;5580;50.106;8.702;2022-07-29T10:36:46;8.63;;;4.97;;
11054;SDS011;5580;50.106;8.702;2022-07-29T10:42:17;7.40;;;5.17;;
11054;SDS011;5580;50.106;8.702;2022-07-29T10:44:45;9.43;;;5.30;;
11054;SDS011;5580;50.106;8.702;2022-07-29T10:47:45;7.77;;;4.70;;
11054;SDS011;5580;50.106;8.702;2022-07-29T10:50:04;14.73;;;5.67;;
11054;SDS011;5580;50.106;8.702;2022-07-29T10:55:34;10.03;;;5.40;;
11054;SDS011;5580;50.106;8.702;2022-07-29T10:58:13;9.33;;;5.40;;
11054;SDS011;5580;50.106;8.702;2022-07-29T11:00:52;9.73;;;5.33;;
11054;SDS011;5580;50.106;8.702;2022-07-29T11:06:07;10.30;;;5.30;;
11054;SDS011;5580;50.106;8.702;2022-07-29T11:08:32;8.90;;;5.27;;
11054;SDS011;5580;50.106;8.702;2022-07-29T11:16:11;13.27;;;5.60;;
11054;SDS011;5580;50.106;8.702;2022-07-29T11:21:39;10.10;;;5.60;;
11054;SDS011;5580;50.106;8.702;2022-07-29T11:24:12;10.20;;;5.10;;
11054;SDS011;5580;50.106;8.702;2022-07-29T11:26:38;11.17;;;5.20;;
11054;SDS011;5580;50.106;8.702;2022-07-29T11:31:43;8.70;;;5.23;;
11054;SDS011;5580;50.106;8.702;2022-07-29T11:39:34;9.50;;;5.67;;
11054;SDS011;5580;50.106;8.702;2022-07-29T11:47:32;10.03;;;5.60;;
11054;SDS011;5580;50.106;8.702;2022-07-29T11:50:01;9.93;;;5.43;;
11054;SDS011;5580;50.106;8.702;2022-07-29T11:55:02;8.30;;;5.37;;
11054;SDS011;5580;50.106;8.702;2022-07-29T11:57:30;11.57;;;5.57;;
11054;SDS011;5580;50.106;8.702;2022-07-29T11:59:56;8.70;;;5.53;;
11054;SDS011;5580;50.106;8.702;2022-07-29T12:02:23;11.43;;;5.87;;
11054;SDS011;5580;50.106;8.702;2022-07-29T12:04:52;10.53;;;5.77;;
11054;SDS011;5580;50.106;8.702;2022-07-29T12:07:32;10.43;;;5.90;;
11054;SDS011;5580;50.106;8.702;2022-07-29T12:09:59;8.70;;;5.57;;
11054;SDS011;5580;50.106;8.702;2022-07-29T12:12:25;12.47;;;5.93;;
11054;SDS011;5580;50.106;8.702;2022-07-29T12:14:51;11.13;;;5.67;;
11054;SDS011;5580;50.106;8.702;2022-07-29T12:17:33;11.13;;;5.90;;
11054;SDS011;5580;50.106;8.702;2022-07-29T12:20:03;11.33;;;5.80;;
11054;SDS011;5580;50.106;8.702;2022-07-29T12:25:00;13.27;;;6.03;;
11054;SDS011;5580;50.106;8.702;2022-07-29T12:27:27;9.40;;;6.05;;
11054;SDS011;5580;50.106;8.702;2022-07-29T12:30:01;9.53;;;5.60;;
11054;SDS011;5580;50.106;8.702;2022-07-29T12:32:33;12.33;;;6.40;;
11054;SDS011;5580;50.106;8.702;2022-07-29T12:35:07;10.38;;;5.95;;
11054;SDS011;5580;50.106;8.702;2022-07-29T12:37:35;10.45;;;5.65;;
11054;SDS011;5580;50.106;8.702;2022-07-29T12:40:03;10.03;;;5.70;;
11054;SDS011;5580;50.106;8.702;2022-07-29T12:42:30;14.00;;;5.97;;
11054;SDS011;5580;50.106;8.702;2022-07-29T12:44:56;10.00;;;5.70;;
11054;SDS011;5580;50.106;8.702;2022-07-29T12:47:21;11.27;;;5.90;;
11054;SDS011;5580;50.106;8.702;2022-07-29T12:49:47;9.40;;;6.00;;
11054;SDS011;5580;50.106;8.702;2022-07-29T12:52:30;11.83;;;5.70;;
11054;SDS011;5580;50.106;8.702;2022-07-29T12:54:58;7.70;;;5.80;;
11054;SDS011;5580;50.106;8.702;2022-07-29T12:57:24;13.25;;;6.00;;
11054;SDS011;5580;50.106;8.702;2022-07-29T13:00:01;9.23;;;5.67;;
11054;SDS011;5580;50.106;8.702;2022-07-29T13:02:27;8.43;;;6.20;;
11054;SDS011;5580;50.106;8.702;2022-07-29T13:04:57;10.18;;;6.07;;
11054;SDS011;5580;50.106;8.702;2022-07-29T13:07:27;9.52;;;5.78;;
11054;SDS011;5580;50.106;8.702;2022-07-29T13:09:54;9.90;;;5.70;;
11054;SDS011;5580;50.106;8.702;2022-07-29T13:12:37;10.77;;;5.80;;
11054;SDS011;5580;50.106;8.702;2022-07-29T13:15:13;10.07;;;5.80;;
11054;SDS011;5580;50.106;8.702;2022-07-29T13:17:43;13.15;;;6.32;;
11054;SDS011;5580;50.106;8.702;2022-07-29T13:20:10;10.23;;;6.07;;
11054;SDS011;5580;50.106;8.702;2022-07-29T13:22:40;9.50;;;5.90;;
11054;SDS011;5580;50.106;8.702;2022-07-29T13:25:10;10.15;;;6.10;;
11054;SDS011;5580;50.106;8.702;2022-07-29T13:27:37;10.57;;;6.20;;
11054;SDS011;5580;50.106;8.702;2022-07-29T13:30:04;10.10;;;5.93;;
11054;SDS011;5580;50.106;8.702;2022-07-29T13:32:32;13.70;;;6.30;;
11054;SDS011;5580;50.106;8.702;2022-07-29T13:35:05;10.32;;;5.78;;
11054;SDS011;5580;50.106;8.702;2022-07-29T13:37:32;11.32;;;6.50;;
11054;SDS011;5580;50.106;8.702;2022-07-29T13:39:59;8.20;;;5.70;;
11054;SDS011;5580;50.106;8.702;2022-07-29T13:42:27;9.98;;;6.10;;
11054;SDS011;5580;50.106;8.702;2022-07-29T13:44:53;8.48;;;5.63;;
11054;SDS011;5580;50.106;8.702;2022-07-29T13:47:19;11.95;;;6.00;;
11054;SDS011;5580;50.106;8.702;2022-07-29T13:49:46;9.25;;;6.07;;
11054;SDS011;5580;50.106;8.702;2022-07-29T13:52:12;9.82;;;6.07;;
11054;SDS011;5580;50.106;8.702;2022-07-29T13:54:37;9.55;;;6.15;;
11054;SDS011;5580;50.106;8.702;2022-07-29T13:57:03;10.50;;;6.00;;
11054;SDS011;5580;50.106;8.702;2022-07-29T13:59:29;10.23;;;6.10;;
11054;SDS011;5580;50.106;8.702;2022-07-29T14:01:55;11.23;;;6.03;;
11054;SDS011;5580;50.106;8.702;2022-07-29T14:04:21;7.95;;;5.70;;
11054;SDS011;5580;50.106;8.702;2022-07-29T14:06:48;11.10;;;6.10;;
11054;SDS011;5580;50.106;8.702;2022-07-29T14:09:14;10.00;;;5.90;;
11054;SDS011;5580;50.106;8.702;2022-07-29T14:11:40;11.23;;;5.50;;
11054;SDS011;5580;50.106;8.702;2022-07-29T14:14:05;9.00;;;5.77;;
11054;SDS011;5580;50.106;8.702;2022-07-29T14:16:32;11.90;;;5.80;;
11054;SDS011;5580;50.106;8.702;2022-07-29T14:18:57;8.57;;;5.60;;
11054;SDS011;5580;50.106;8.702;2022-07-29T14:21:23;10.48;;;5.65;;
11054;SDS011;5580;50.106;8.702;2022-07-29T14:23:49;12.60;;;5.78;;
11054;SDS011;5580;50.106;8.702;2022-07-29T14:26:14;10.73;;;5.97;;
11054;SDS011;5580;50.106;8.702;2022-07-29T14:28:40;11.00;;;5.85;;
11054;SDS011;5580;50.106;8.702;2022-07-29T14:31:05;9.50;;;5.50;;
11054;SDS011;5580;50.106;8.702;2022-07-29T14:33:31;11.23;;;5.63;;
11054;SDS011;5580;50.106;8.702;2022-07-29T14:35:57;9.20;;;5.53;;
11054;SDS011;5580;50.106;8.702;2022-07-29T14:38:22;12.32;;;5.68;;
11054;SDS011;5580;50.106;8.702;2022-07-29T14:40:48;10.48;;;5.50;;
11054;SDS011;5580;50.106;8.702;2022-07-29T14:43:14;9.25;;;5.50;;
11054;SDS011;5580;50.106;8.702;2022-07-29T14:45:40;10.43;;;5.40;;
11054;SDS011;5580;50.106;8.702;2022-07-29T14:48:05;18.08;;;6.65;;
11054;SDS011;5580;50.106;8.702;2022-07-29T14:50:31;13.27;;;6.10;;
11054;SDS011;5580;50.106;8.702;2022-07-29T14:52:57;18.45;;;6.55;;
11054;SDS011;5580;50.106;8.702;2022-07-29T14:55:26;11.13;;;6.43;;
11054;SDS011;5580;50.106;8.702;2022-07-29T14:57:52;11.57;;;5.78;;
11054;SDS011;5580;50.106;8.702;2022-07-29T15:00:18;13.17;;;5.90;;
11054;SDS011;5580;50.106;8.702;2022-07-29T15:02:45;8.90;;;5.60;;
11054;SDS011;5580;50.106;8.702;2022-07-29T15:05:11;10.75;;;5.50;;
11054;SDS011;5580;50.106;8.702;2022-07-29T15:07:37;10.50;;;5.30;;
11054;SDS011;5580;50.106;8.702;2022-07-29T15:10:03;8.60;;;5.50;;
11054;SDS011;5580;50.106;8.702;2022-07-29T15:12:29;10.87;;;5.40;;
11054;SDS011;5580;50.106;8.702;2022-07-29T15:14:55;8.37;;;5.50;;
11054;SDS011;5580;50.106;8.702;2022-07-29T15:17:21;9.80;;;5.60;;
11054;SDS011;5580;50.106;8.702;2022-07-29T15:19:47;7.83;;;5.57;;
11054;SDS011;5580;50.106;8.702;2022-07-29T15:22:12;8.00;;;5.90;;
11054;SDS011;5580;50.106;8.702;2022-07-29T15:24:38;9.43;;;5.70;;
11054;SDS011;5580;50.106;8.702;2022-07-29T15:27:03;8.47;;;5.70;;
11054;SDS011;5580;50.106;8.702;2022-07-29T15:29:29;9.50;;;5.57;;
11054;SDS011;5580;50.106;8.702;2022-07-29T15:31:55;9.33;;;5.30;;
11054;SDS011;5580;50.106;8.702;2022-07-29T15:34:20;6.90;;;5.60;;
11054;SDS011;5580;50.106;8.702;2022-07-29T15:36:48;8.73;;;5.63;;
11054;SDS011;5580;50.106;8.702;2022-07-29T15:39:15;8.63;;;5.30;;
11054;SDS011;5580;50.106;8.702;2022-07-29T15:41:40;7.97;;;5.10;;
11054;SDS011;5580;50.106;8.702;2022-07-29T15:44:06;7.23;;;5.43;;
11054;SDS011;5580;50.106;8.702;2022-07-29T15:46:32;7.83;;;5.00;;
11054;SDS011;5580;50.106;8.702;2022-07-29T15:49:16;7.13;;;5.10;;
11054;SDS011;5580;50.106;8.702;2022-07-29T15:51:41;8.10;;;5.20;;